Time;durP1;ratioP1;P1;durP2;ratioP2;P2;SDS_P1;SDS_P2;PMS_P1;PMS_P2;Temp;Humidity;BMP_temperature;BMP_pressure;BME280_temperature;BME280_humidity;BME280_pressure;Samples;Min_cycle;Max_cycle;Signal;HPM_P1;HPM_P2
2022/08/24 00:01:26;;;;;;;3.17;2.88;;;;;;;19.03;65.28;98390.53;5071490;28;20477;-85
2022/08/24 00:03:56;;;;;;;3.85;3.28;;;;;;;18.92;65.95;98403.69;5071645;28;20040;-85
2022/08/24 00:06:26;;;;;;;4.75;3.38;;;;;;;18.69;66.41;98388.75;5069445;28;20070;-86
2022/08/24 00:08:57;;;;;;;3.05;2.80;;;;;;;18.84;66.99;98396.16;5066786;28;20045;-85
2022/08/24 00:11:42;;;;;;;2.80;2.50;;;;;;;18.86;66.26;98398.56;5059335;28;20063;-85
2022/08/24 00:14:28;;;;;;;3.42;2.65;;;;;;;18.87;66.58;98400.97;5073251;28;20577;-85
2022/08/24 00:16:58;;;;;;;2.50;2.30;;;;;;;18.89;66.55;98390.91;5059490;28;20047;-85
2022/08/24 00:19:27;;;;;;;2.33;2.10;;;;;;;19.01;66.25;98397.94;5078484;28;20044;-85
2022/08/24 00:21:54;;;;;;;2.30;2.10;;;;;;;19.01;66.17;98400.59;5077485;28;20128;-84
2022/08/24 00:24:21;;;;;;;3.05;2.38;;;;;;;18.97;66.06;98387.00;5075576;28;20044;-84
2022/08/24 00:26:48;;;;;;;2.70;2.50;;;;;;;19.02;65.34;98397.72;5073318;28;20047;-85
2022/08/24 00:29:17;;;;;;;3.13;2.88;;;;;;;18.99;65.81;98395.53;5072511;28;20040;-84
2022/08/24 00:31:44;;;;;;;2.40;2.20;;;;;;;18.96;65.96;98398.69;5071247;28;20495;-84
2022/08/24 00:34:12;;;;;;;3.10;2.70;;;;;;;18.85;66.35;98395.09;5070463;28;20044;-85
2022/08/24 00:36:41;;;;;;;3.38;2.80;;;;;;;18.71;66.71;98392.00;5030508;28;20058;-85
2022/08/24 00:39:09;;;;;;;3.13;2.80;;;;;;;18.70;67.06;98392.22;5045031;28;20050;-85
2022/08/24 00:41:42;;;;;;;2.55;2.35;;;;;;;18.74;67.39;98385.38;5043495;28;20447;-85
2022/08/24 00:44:10;;;;;;;2.67;2.47;;;;;;;18.85;66.56;98391.63;5048876;28;20044;-86
2022/08/24 00:46:54;;;;;;;3.75;3.40;;;;;;;18.80;66.72;98389.72;5037502;28;20049;-85
2022/08/24 00:49:45;;;;;;;3.90;3.20;;;;;;;18.61;67.06;98389.16;5068509;28;20041;-85
2022/08/24 00:52:26;;;;;;;4.20;2.72;;;;;;;18.56;67.79;98385.63;5074587;28;20482;-85
2022/08/24 00:55:09;;;;;;;3.08;2.88;;;;;;;18.69;67.87;98394.06;5075051;28;20412;-85
2022/08/24 00:57:44;;;;;;;3.22;2.60;;;;;;;18.74;67.11;98396.00;5074932;28;20044;-86
2022/08/24 01:00:39;;;;;;;3.70;2.95;;;;;;;18.72;67.10;98406.09;5073764;28;20045;-85
2022/08/24 01:03:12;;;;;;;3.15;2.85;;;;;;;18.46;67.69;98384.41;5073556;28;20086;-86
2022/08/24 01:05:40;;;;;;;3.83;3.42;;;;;;;18.43;68.02;98406.16;5050433;28;20044;-86
2022/08/24 01:08:10;;;;;;;3.47;3.17;;;;;;;18.39;67.93;98398.91;5074980;28;20090;-86
2022/08/24 01:10:43;;;;;;;3.00;2.80;;;;;;;18.38;68.23;98394.66;5066190;28;20044;-86
2022/08/24 01:13:12;;;;;;;3.35;3.05;;;;;;;18.37;68.24;98407.13;5051474;28;20477;-85
2022/08/24 01:15:45;;;;;;;3.20;2.90;;;;;;;18.32;68.43;98403.59;5042676;28;20087;-85
2022/08/24 01:21:15;;;;;;;4.25;3.20;;;;;;;18.24;68.82;98402.16;5035374;28;20041;-85
2022/08/24 01:23:59;;;;;;;3.33;3.03;;;;;;;18.18;69.57;98393.28;5044389;28;20046;-85
2022/08/24 01:26:35;;;;;;;5.35;3.20;;;;;;;18.27;69.90;98403.50;5041893;28;20079;-84
2022/08/24 01:29:13;;;;;;;4.43;4.03;;;;;;;17.99;69.98;98394.53;5056512;28;20040;-85
2022/08/24 01:31:40;;;;;;;4.35;3.95;;;;;;;17.88;70.45;98393.59;5033712;28;20075;-85
2022/08/24 01:34:07;;;;;;;3.70;3.40;;;;;;;17.89;70.70;98389.09;5033021;28;20445;-85
2022/08/24 01:36:59;;;;;;;3.80;3.40;;;;;;;17.89;70.41;98395.19;5051823;28;20045;-84
2022/08/24 01:39:31;;;;;;;4.68;4.05;;;;;;;17.60;71.59;98398.88;5049213;28;20048;-85
2022/08/24 01:42:00;;;;;;;5.38;4.43;;;;;;;17.38;72.28;98396.06;5060858;28;20045;-85
2022/08/24 01:44:35;;;;;;;3.83;3.53;;;;;;;17.33;72.68;98402.09;5041545;28;20164;-84
2022/08/24 01:47:05;;;;;;;4.65;4.30;;;;;;;17.24;73.03;98403.50;5048022;28;20132;-85
2022/08/24 01:49:38;;;;;;;6.05;4.13;;;;;;;17.12;73.62;98400.06;5032128;28;20068;-86
2022/08/24 01:52:08;;;;;;;4.90;3.90;;;;;;;17.17;73.12;98407.34;5048950;28;20100;-85
2022/08/24 01:54:35;;;;;;;4.30;3.90;;;;;;;17.13;73.38;98407.78;5048328;28;20045;-85
2022/08/24 01:57:02;;;;;;;5.03;4.55;;;;;;;16.96;73.51;98400.78;5038276;28;20049;-85
2022/08/24 01:59:29;;;;;;;5.05;4.57;;;;;;;16.87;74.05;98400.34;5040620;28;20493;-85
2022/08/24 02:02:06;;;;;;;4.75;4.35;;;;;;;16.80;74.74;98400.50;5066395;28;20072;-85
2022/08/24 02:04:34;;;;;;;5.03;4.38;;;;;;;16.71;74.86;98393.91;5064240;28;20067;-85
2022/08/24 02:07:01;;;;;;;5.15;4.45;;;;;;;16.73;74.69;98402.44;5063154;28;20459;-85
2022/08/24 02:09:30;;;;;;;5.55;4.90;;;;;;;16.65;75.10;98396.66;5027611;28;20091;-85
2022/08/24 02:12:19;;;;;;;5.38;4.88;;;;;;;16.52;75.47;98395.06;5032842;28;20052;-85
2022/08/24 02:14:46;;;;;;;5.57;4.63;;;;;;;16.45;75.77;98412.91;5032949;28;20105;-84
2022/08/24 02:17:13;;;;;;;4.93;4.43;;;;;;;16.42;75.68;98400.09;5036972;28;20488;-85
2022/08/24 02:19:40;;;;;;;6.32;5.30;;;;;;;16.50;75.45;98413.00;5035125;28;20073;-84
2022/08/24 02:22:07;;;;;;;5.18;4.40;;;;;;;16.49;75.43;98395.50;5052072;28;20045;-85
2022/08/24 02:24:34;;;;;;;4.50;4.10;;;;;;;16.58;75.16;98397.56;5072762;28;20074;-85
2022/08/24 02:27:01;;;;;;;4.20;3.80;;;;;;;16.73;75.19;98391.88;5034756;28;20095;-84
2022/08/24 02:29:28;;;;;;;4.20;3.90;;;;;;;16.87;74.76;98402.19;5035219;28;20559;-84
2022/08/24 02:31:56;;;;;;;5.25;4.75;;;;;;;16.77;74.41;98393.00;5062151;28;20075;-84
2022/08/24 02:34:23;;;;;;;4.53;4.13;;;;;;;16.73;74.88;98402.44;5050631;28;20385;-84
2022/08/24 02:36:52;;;;;;;4.53;4.13;;;;;;;16.62;75.21;98400.59;5064911;28;20048;-85
2022/08/24 02:39:19;;;;;;;3.90;3.50;;;;;;;16.70;75.21;98397.59;5063184;28;20044;-85
2022/08/24 02:41:46;;;;;;;4.30;3.90;;;;;;;16.68;75.55;98399.66;5042095;28;20042;-84
2022/08/24 02:44:12;;;;;;;4.80;4.40;;;;;;;16.80;75.29;98407.63;5031629;28;20034;-84
2022/08/24 02:46:40;;;;;;;5.45;4.13;;;;;;;16.73;75.27;98402.44;5056878;28;20092;-84
2022/08/24 02:49:07;;;;;;;5.47;4.97;;;;;;;16.65;75.60;98402.75;5042343;28;20094;-84
2022/08/24 02:51:41;;;;;;;5.73;5.23;;;;;;;16.52;75.71;98398.50;5066990;28;20546;-85
2022/08/24 02:54:16;;;;;;;5.53;5.03;;;;;;;16.49;75.96;98411.38;5051689;28;20059;-85
2022/08/24 02:56:44;;;;;;;5.00;4.60;;;;;;;16.44;76.46;98403.34;5050635;28;20041;-85
2022/08/24 02:59:12;;;;;;;5.38;4.55;;;;;;;16.45;76.36;98397.00;5051891;28;20045;-84
2022/08/24 03:01:39;;;;;;;4.47;4.07;;;;;;;16.59;76.38;98403.69;5069368;28;20041;-84
2022/08/24 03:04:07;;;;;;;4.90;4.40;;;;;;;16.67;75.45;98403.31;5041714;28;20516;-84
2022/08/24 03:06:33;;;;;;;4.88;4.35;;;;;;;16.67;75.85;98398.03;5031667;28;20053;-84
2022/08/24 03:09:00;;;;;;;4.75;4.25;;;;;;;16.69;75.51;98401.25;5048250;28;20064;-84
2022/08/24 03:11:37;;;;;;;5.60;4.93;;;;;;;16.54;75.60;98408.84;5030960;28;20052;-84
2022/08/24 03:14:04;;;;;;;5.95;5.35;;;;;;;16.43;75.91;98407.00;5055247;28;20431;-84
2022/08/24 03:16:31;;;;;;;4.68;4.20;;;;;;;16.52;75.93;98403.78;5067030;28;20158;-85
2022/08/24 03:18:58;;;;;;;5.30;4.25;;;;;;;16.59;75.98;98406.31;5046048;28;20410;-85
2022/08/24 03:21:26;;;;;;;4.30;3.85;;;;;;;16.69;75.59;98406.56;5035221;28;20510;-84
2022/08/24 03:23:53;;;;;;;4.88;4.03;;;;;;;16.69;75.37;98384.56;5031352;28;20070;-84
2022/08/24 03:26:20;;;;;;;6.82;6.03;;;;;;;16.55;75.29;98399.88;5051019;28;20060;-84
2022/08/24 03:28:46;;;;;;;6.00;5.47;;;;;;;16.43;75.97;98394.56;5051152;28;20049;-84
2022/08/24 03:31:15;;;;;;;6.30;5.75;;;;;;;16.38;76.07;98404.25;5048300;28;20045;-84
2022/08/24 03:33:42;;;;;;;5.00;4.50;;;;;;;16.38;76.70;98405.06;5031796;28;20103;-84
2022/08/24 03:36:09;;;;;;;4.65;4.25;;;;;;;16.44;76.55;98390.91;5050536;28;20044;-84
2022/08/24 03:38:40;;;;;;;5.32;4.50;;;;;;;16.51;76.06;98388.16;5061299;28;20139;-84
2022/08/24 03:41:07;;;;;;;5.00;4.47;;;;;;;16.46;75.58;98380.88;5070742;28;20074;-84
2022/08/24 03:43:45;;;;;;;5.22;4.70;;;;;;;16.45;76.33;98389.06;5070232;28;20036;-84
2022/08/24 03:46:21;;;;;;;4.60;4.20;;;;;;;16.58;76.31;98394.13;5031457;28;20091;-84
2022/08/24 03:48:51;;;;;;;4.57;4.18;;;;;;;16.65;75.70;98381.56;5049352;28;20052;-83
2022/08/24 03:51:23;;;;;;;4.07;3.63;;;;;;;16.68;75.51;98410.25;5049586;28;20051;-84
2022/08/24 03:53:52;;;;;;;5.78;4.60;;;;;;;16.57;75.38;98393.31;5040357;28;20084;-84
2022/08/24 03:56:19;;;;;;;5.15;4.03;;;;;;;16.56;75.57;98402.31;5058634;28;20048;-83
2022/08/24 03:58:47;;;;;;;4.80;3.95;;;;;;;16.69;75.56;98406.56;5069649;28;20071;-84
2022/08/24 04:01:15;;;;;;;5.03;4.47;;;;;;;16.55;74.80;98408.66;5070279;28;20547;-84
2022/08/24 04:03:45;;;;;;;4.30;4.00;;;;;;;16.57;75.42;98414.50;5069962;28;20390;-84
2022/08/24 04:06:16;;;;;;;4.50;3.70;;;;;;;16.65;75.45;98410.69;5069109;28;20040;-84
2022/08/24 04:08:43;;;;;;;3.97;3.35;;;;;;;16.69;74.99;98417.16;5065280;28;20072;-83
2022/08/24 04:11:18;;;;;;;4.55;4.15;;;;;;;16.70;75.02;98410.00;5066515;28;20464;-84
2022/08/24 04:13:46;;;;;;;4.03;3.72;;;;;;;16.64;74.83;98414.38;5052511;28;20048;-83
2022/08/24 04:16:17;;;;;;;5.30;4.90;;;;;;;16.49;75.55;98427.25;5069520;28;20044;-83
2022/08/24 04:18:45;;;;;;;6.30;5.70;;;;;;;16.22;76.26;98429.56;5034327;28;20087;-83
2022/08/24 04:21:22;;;;;;;5.60;5.20;;;;;;;16.14;76.87;98428.03;5053827;28;20123;-83
2022/08/24 04:23:51;;;;;;;6.00;5.25;;;;;;;16.01;77.57;98428.22;5063827;28;20041;-83
2022/08/24 04:26:21;;;;;;;6.68;6.07;;;;;;;15.84;78.11;98440.50;5070931;28;20049;-83
2022/08/24 04:29:10;;;;;;;8.45;7.28;;;;;;;15.69;78.96;98443.53;5069323;28;20519;-83
2022/08/24 04:31:39;;;;;;;14.57;10.38;;;;;;;15.71;78.91;98441.47;5071221;28;20135;-83
2022/08/24 04:34:07;;;;;;;18.40;12.30;;;;;;;15.69;78.56;98432.97;5069773;28;20044;-84
2022/08/24 04:36:34;;;;;;;16.80;12.68;;;;;;;15.65;79.09;98435.25;5064129;28;20063;-83
2022/08/24 04:39:04;;;;;;;23.25;17.40;;;;;;;15.49;79.17;98434.00;5073422;28;20106;-84
2022/08/24 04:41:31;;;;;;;18.88;13.10;;;;;;;15.58;79.05;98433.69;5033713;28;20045;-84
2022/08/24 04:44:01;;;;;;;27.88;17.55;;;;;;;15.63;78.92;98439.94;5081315;28;20438;-84
2022/08/24 04:46:28;;;;;;;19.85;13.98;;;;;;;15.64;78.97;98436.25;5073322;28;20098;-84
2022/08/24 04:48:55;;;;;;;29.50;18.10;;;;;;;15.58;79.05;98445.06;5074064;28;20040;-84
2022/08/24 04:51:22;;;;;;;24.15;15.00;;;;;;;15.52;79.45;98440.66;5067161;28;20086;-84
2022/08/24 04:53:50;;;;;;;25.40;17.20;;;;;;;15.49;79.62;98443.75;5056232;28;20045;-84
2022/08/24 04:56:23;;;;;;;20.58;12.95;;;;;;;15.51;79.79;98441.69;5034367;28;20045;-84
2022/08/24 04:58:53;;;;;;;20.45;13.13;;;;;;;15.64;79.68;98452.13;5043120;28;20057;-84
2022/08/24 05:01:25;;;;;;;19.75;12.98;;;;;;;15.63;79.53;98457.66;5052014;28;20476;-84
2022/08/24 05:03:54;;;;;;;15.98;10.50;;;;;;;15.73;79.88;98453.44;5073762;28;20417;-84
2022/08/24 05:06:25;;;;;;;12.55;8.90;;;;;;;15.92;79.81;98453.41;5061678;28;20072;-83
2022/08/24 05:08:52;;;;;;;;;;;;;;;16.06;79.21;98457.47;5069781;28;20605;-84
2022/08/24 05:11:21;;;;;;;12.48;8.95;;;;;;;16.15;79.18;98461.41;5072373;28;19920;-83
2022/08/24 05:13:52;;;;;;;13.70;10.18;;;;;;;16.21;79.03;98463.16;5073566;28;20123;-84
2022/08/24 05:16:20;;;;;;;12.82;9.60;;;;;;;16.29;78.66;98464.66;5057166;28;20048;-83
2022/08/24 05:18:48;;;;;;;13.57;10.20;;;;;;;16.35;78.20;98465.59;5058675;28;20463;-83
2022/08/24 05:21:20;;;;;;;17.75;11.07;;;;;;;16.25;77.83;98464.31;5053864;28;20045;-83
2022/08/24 05:23:48;;;;;;;12.85;10.40;;;;;;;16.23;78.50;98471.66;5061932;28;20596;-83
2022/08/24 05:26:24;;;;;;;12.52;9.30;;;;;;;16.21;78.38;98462.34;5065162;28;20041;-83
2022/08/24 05:29:01;;;;;;;10.13;7.95;;;;;;;16.33;78.73;98471.13;5054034;28;20573;-83
2022/08/24 05:31:31;;;;;;;9.80;7.65;;;;;;;16.42;78.21;98468.94;5063927;28;20105;-83
2022/08/24 05:34:00;;;;;;;10.45;7.57;;;;;;;16.48;78.48;98471.47;5058471;28;20060;-83
2022/08/24 05:36:37;;;;;;;8.98;7.60;;;;;;;16.54;78.72;98472.41;5048097;28;20042;-83
2022/08/24 05:39:10;;;;;;;9.07;7.97;;;;;;;16.60;77.96;98471.47;5067305;28;20101;-84
2022/08/24 05:41:42;;;;;;;11.57;9.25;;;;;;;16.50;77.83;98472.06;5053091;28;20045;-83
2022/08/24 05:44:13;;;;;;;9.07;7.00;;;;;;;16.63;78.21;98478.19;5051111;28;20041;-83
2022/08/24 05:46:40;;;;;;;11.15;7.43;;;;;;;16.58;78.18;98473.56;5053872;28;20083;-83
2022/08/24 05:49:07;;;;;;;9.45;7.85;;;;;;;16.65;78.31;98466.31;5051469;28;20059;-84
2022/08/24 05:51:35;;;;;;;8.38;6.93;;;;;;;16.81;77.77;98470.16;5073384;28;20381;-84
2022/08/24 05:54:03;;;;;;;8.23;6.05;;;;;;;16.90;77.58;98476.72;5051041;28;20115;-84
2022/08/24 05:56:30;;;;;;;9.18;7.40;;;;;;;17.02;77.38;98474.84;5042741;28;20049;-84
2022/08/24 05:58:58;;;;;;;7.55;6.18;;;;;;;17.08;77.27;98468.63;5044221;28;20087;-85
2022/08/24 06:01:26;;;;;;;7.18;6.03;;;;;;;17.21;77.22;98483.47;5041600;28;20041;-84
2022/08/24 06:03:55;;;;;;;8.65;6.78;;;;;;;17.23;76.24;98486.72;5032673;28;20040;-84
2022/08/24 06:06:23;;;;;;;10.05;7.88;;;;;;;17.33;75.62;98488.75;5038556;28;20091;-84
2022/08/24 06:08:55;;;;;;;10.00;8.15;;;;;;;17.36;75.33;98496.25;5038184;28;20464;-84
2022/08/24 06:11:33;;;;;;;10.82;8.27;;;;;;;17.34;75.93;98483.25;5038707;28;20443;-84
2022/08/24 06:14:08;;;;;;;12.60;9.85;;;;;;;17.48;75.49;98478.47;5045700;28;20045;-84
2022/08/24 06:16:46;;;;;;;7.93;7.10;;;;;;;17.69;75.24;98489.47;5041959;28;20132;-84
2022/08/24 06:19:17;;;;;;;9.93;7.90;;;;;;;17.77;75.02;98476.69;5035249;28;20040;-85
2022/08/24 06:21:49;;;;;;;9.10;7.45;;;;;;;17.86;74.76;98475.25;5036189;28;20427;-85
2022/08/24 06:24:17;;;;;;;11.20;8.32;;;;;;;17.91;74.23;98482.50;5048481;28;20404;-85
2022/08/24 06:29:33;;;;;;;10.57;7.55;;;;;;;17.96;74.12;98484.47;5047754;28;20045;-86
2022/08/24 06:31:59;;;;;;;7.65;6.78;;;;;;;18.08;74.50;98478.06;5055725;28;20036;-86
2022/08/24 06:34:26;;;;;;;8.10;6.32;;;;;;;18.26;74.64;98473.56;5040961;28;20095;-85
2022/08/24 06:36:53;;;;;;;7.38;6.55;;;;;;;18.39;73.76;98475.91;5056053;28;20132;-85
2022/08/24 06:39:20;;;;;;;12.95;9.07;;;;;;;18.37;72.54;98473.50;5032532;28;20041;-85
2022/08/24 06:41:47;;;;;;;9.43;8.43;;;;;;;18.36;72.80;98477.22;5053029;28;20049;-85
2022/08/24 06:44:13;;;;;;;9.02;7.47;;;;;;;18.53;73.06;98479.06;5037823;28;20041;-86
2022/08/24 06:46:40;;;;;;;9.07;7.80;;;;;;;18.65;72.87;98469.97;5031466;28;20092;-85
2022/08/24 06:49:07;;;;;;;8.02;7.20;;;;;;;18.67;71.86;98465.25;5039927;28;20046;-86
2022/08/24 06:51:34;;;;;;;8.55;7.15;;;;;;;18.93;73.39;98479.72;5045755;28;20049;-86
2022/08/24 06:54:00;;;;;;;7.78;5.97;;;;;;;19.09;72.55;98482.59;5044276;28;20523;-85
2022/08/24 06:56:27;;;;;;;6.60;5.90;;;;;;;19.20;72.51;98481.69;5033862;28;20041;-86
2022/08/24 06:58:54;;;;;;;9.27;5.20;;;;;;;19.38;73.73;98485.91;5049537;28;20098;-84
2022/08/24 07:01:27;;;;;;;4.45;3.65;;;;;;;19.67;70.34;98483.88;5060102;28;20060;-87
2022/08/24 07:03:55;;;;;;;4.25;3.85;;;;;;;19.99;68.63;98498.06;5069732;28;20040;-87
2022/08/24 07:06:24;;;;;;;3.83;3.42;;;;;;;20.22;68.43;98502.31;5069206;28;20044;-87
2022/08/24 07:08:52;;;;;;;4.18;3.47;;;;;;;20.38;67.85;98497.91;5055478;28;20045;-85
2022/08/24 07:11:20;;;;;;;4.22;3.65;;;;;;;20.58;66.23;98494.66;5048917;28;20504;-86
2022/08/24 07:13:48;;;;;;;4.00;3.60;;;;;;;20.79;65.36;98504.41;5049364;28;20048;-87
2022/08/24 07:16:19;;;;;;;4.65;4.25;;;;;;;20.80;64.56;98487.34;5059654;28;20056;-87
2022/08/24 07:18:46;;;;;;;4.95;4.45;;;;;;;20.95;65.66;98499.97;5032411;28;20041;-88
2022/08/24 07:21:19;;;;;;;10.90;7.53;;;;;;;21.14;65.40;98499.56;5066832;28;20098;-86
2022/08/24 07:23:48;;;;;;;12.50;9.05;;;;;;;21.30;63.95;98496.75;5042795;28;20041;-88
2022/08/24 07:26:21;;;;;;;5.25;4.75;;;;;;;21.55;63.53;98498.72;5070490;28;20053;-90
2022/08/24 07:29:03;;;;;;;4.40;3.95;;;;;;;21.79;62.83;98487.59;5066217;28;20049;-88
2022/08/24 07:31:37;;;;;;;4.72;3.88;;;;;;;21.91;61.91;98480.16;5059958;28;20060;-89
2022/08/24 07:34:11;;;;;;;5.60;4.90;;;;;;;21.99;61.40;98482.31;5081505;28;20062;-92
2022/08/24 07:36:39;;;;;;;4.18;3.53;;;;;;;22.29;63.87;98486.13;5059140;28;20405;-86
2022/08/24 07:39:11;;;;;;;4.13;3.50;;;;;;;22.43;60.55;98481.84;5051058;28;20451;-83
2022/08/24 07:41:41;;;;;;;3.95;3.55;;;;;;;22.60;60.10;98487.72;5063950;28;20049;-88
2022/08/24 07:44:29;;;;;;;5.72;5.15;;;;;;;22.76;59.10;98479.69;5047871;28;20049;-88
2022/08/24 07:46:57;;;;;;;4.28;3.58;;;;;;;22.93;60.44;98486.41;5050633;28;20055;-88
2022/08/24 07:49:36;;;;;;;6.30;5.63;;;;;;;22.93;59.30;98474.91;5047301;28;20053;-87
2022/08/24 07:52:05;;;;;;;4.05;3.65;;;;;;;23.19;59.22;98481.78;5030396;28;20037;-87
2022/08/24 07:54:32;;;;;;;3.40;3.10;;;;;;;23.25;59.46;98482.56;5014447;28;20057;-91
2022/08/24 07:57:02;;;;;;;4.85;4.40;;;;;;;23.17;57.56;98486.59;5033970;28;20052;-90
2022/08/24 07:59:33;;;;;;;4.13;3.70;;;;;;;23.44;59.48;98496.16;5052986;28;20454;-88
2022/08/24 08:02:01;;;;;;;3.65;3.30;;;;;;;23.60;58.11;98481.63;5053913;28;20052;-88
2022/08/24 08:04:28;;;;;;;4.82;3.63;;;;;;;23.87;57.06;98493.84;5048100;28;20432;-88
2022/08/24 08:06:55;;;;;;;3.95;3.30;;;;;;;23.94;56.25;98489.00;5014409;28;20049;-90
2022/08/24 08:09:27;;;;;;;4.60;4.07;;;;;;;24.04;56.99;98500.44;5032919;28;20136;-93
2022/08/24 08:12:01;;;;;;;4.05;3.45;;;;;;;24.18;56.11;98487.25;5030436;28;20072;-87
2022/08/24 08:14:28;;;;;;;3.85;3.40;;;;;;;24.21;54.94;98483.97;5062689;28;20033;-89
2022/08/24 08:16:55;;;;;;;3.90;3.22;;;;;;;24.36;55.25;98487.69;5033543;28;20048;-90
2022/08/24 08:19:22;;;;;;;4.95;4.10;;;;;;;24.25;55.38;98495.75;5036897;28;20447;-88
2022/08/24 08:24:42;;;;;;;6.07;3.67;;;;;;;24.20;54.92;98493.09;5061007;28;20051;-90
2022/08/24 08:27:16;;;;;;;3.22;2.92;;;;;;;24.42;54.27;98483.88;5069530;28;20049;-90
2022/08/24 08:29:43;;;;;;;2.95;2.67;;;;;;;24.68;54.00;98492.50;5048519;28;20540;-90
2022/08/24 08:32:15;;;;;;;3.05;2.75;;;;;;;24.84;53.38;98502.03;5043427;28;20068;-90
2022/08/24 08:34:46;;;;;;;3.13;2.88;;;;;;;24.91;53.53;98494.44;5031058;28;20080;-89
2022/08/24 08:37:14;;;;;;;3.20;2.90;;;;;;;24.97;53.53;98496.00;5034525;28;20049;-92
2022/08/24 08:39:42;;;;;;;3.42;3.13;;;;;;;24.79;52.65;98478.72;5046346;28;20060;-91
2022/08/24 08:42:30;;;;;;;3.50;2.80;;;;;;;24.95;53.46;98492.81;5014125;28;20045;-90
2022/08/24 08:45:26;;;;;;;3.15;2.88;;;;;;;25.02;54.60;98471.78;5023499;28;20139;-85
2022/08/24 08:48:30;;;;;;;2.97;2.60;;;;;;;25.27;51.73;98480.69;5074800;28;20144;-87
2022/08/24 08:51:50;;;;;;;3.55;3.25;;;;;;;25.34;50.62;98484.63;5048435;28;20501;-86
2022/08/24 08:54:45;;;;;;;3.60;3.30;;;;;;;25.39;50.02;98478.38;5030441;28;20119;-85
2022/08/24 08:57:50;;;;;;;4.20;3.83;;;;;;;25.44;49.51;98485.59;5033210;28;20515;-88
2022/08/24 09:00:22;;;;;;;3.65;3.30;;;;;;;25.50;49.73;98461.06;5029895;28;20143;-84
2022/08/24 09:03:10;;;;;;;2.70;2.50;;;;;;;25.72;50.09;98473.94;5040266;28;20049;-85
2022/08/24 09:06:16;;;;;;;2.90;2.70;;;;;;;25.81;49.67;98472.25;5051969;28;20558;-88
2022/08/24 09:09:27;;;;;;;3.33;3.03;;;;;;;25.97;50.47;98480.91;5058073;28;20044;-87
2022/08/24 09:12:44;;;;;;;3.55;3.25;;;;;;;26.00;49.55;98476.81;5071204;28;20056;-89
2022/08/24 09:15:33;;;;;;;3.30;2.97;;;;;;;26.04;49.35;98464.41;5056324;28;20040;-87
2022/08/24 09:18:40;;;;;;;4.00;3.05;;;;;;;26.16;47.88;98472.81;5055320;28;20474;-91
2022/08/24 09:21:39;;;;;;;3.28;2.97;;;;;;;26.30;47.96;98462.91;5052207;28;20459;-87
2022/08/24 09:24:53;;;;;;;3.83;3.42;;;;;;;26.46;47.70;98470.78;5033217;28;20065;-88
2022/08/24 09:27:55;;;;;;;3.03;2.83;;;;;;;26.60;48.20;98471.59;5050019;28;20041;-93
2022/08/24 09:30:45;;;;;;;;;;;;;;;26.34;47.72;98466.63;5051404;28;20060;-87
2022/08/24 09:33:27;;;;;;;3.60;3.30;;;;;;;26.21;49.09;98456.63;5053275;28;19928;-89
2022/08/24 09:36:34;;;;;;;3.22;2.92;;;;;;;26.46;50.14;98458.13;5054124;28;20037;-90
2022/08/24 09:39:54;;;;;;;3.50;3.20;;;;;;;26.55;49.41;98455.53;5065540;28;20079;-95
2022/08/24 09:42:49;;;;;;;3.70;3.40;;;;;;;26.84;48.87;98456.09;5074096;28;20128;-88
2022/08/24 09:45:43;;;;;;;3.55;3.25;;;;;;;26.98;47.85;98448.03;5075668;28;20040;-90
2022/08/24 09:48:25;;;;;;;3.50;2.90;;;;;;;27.14;46.25;98443.19;5048051;28;20041;-89
2022/08/24 09:51:38;;;;;;;2.50;2.30;;;;;;;27.04;46.20;98443.34;5039520;28;20095;-87
2022/08/24 09:54:45;;;;;;;2.97;2.72;;;;;;;27.18;48.22;98449.59;5065774;28;20056;-88
2022/08/24 09:57:34;;;;;;;2.80;2.60;;;;;;;27.45;46.99;98451.44;5054411;28;20042;-87
2022/08/24 10:00:30;;;;;;;3.05;2.85;;;;;;;27.59;48.10;98448.72;5038130;28;20041;-87
2022/08/24 10:03:43;;;;;;;2.95;2.65;;;;;;;27.74;46.24;98456.53;5034459;28;20048;-88
2022/08/24 10:06:17;;;;;;;3.40;3.10;;;;;;;27.61;46.34;98454.63;5050158;28;20072;-87
2022/08/24 10:08:56;;;;;;;2.80;2.60;;;;;;;27.67;46.23;98453.41;5065544;28;20123;-88
2022/08/24 10:11:49;;;;;;;3.20;2.90;;;;;;;27.65;45.74;98461.81;5040370;28;20136;-92
2022/08/24 10:14:46;;;;;;;2.93;2.70;;;;;;;27.82;45.66;98450.41;5035374;28;20049;-89
2022/08/24 10:17:42;;;;;;;3.17;2.50;;;;;;;28.07;47.16;98437.44;5040785;28;20037;-90
2022/08/24 10:20:28;;;;;;;3.90;3.60;;;;;;;27.88;44.59;98430.31;5033613;28;20147;-86
2022/08/24 10:23:32;;;;;;;3.47;3.15;;;;;;;27.71;45.44;98425.59;5039641;28;20115;-84
2022/08/24 10:26:13;;;;;;;3.00;2.70;;;;;;;28.03;46.48;98434.59;5034182;28;20045;-91
2022/08/24 10:29:25;;;;;;;2.50;2.30;;;;;;;27.80;45.89;98439.13;5070230;28;20045;-86
2022/08/24 10:32:17;;;;;;;2.85;2.45;;;;;;;27.44;45.74;98436.41;5054146;28;20095;-91
2022/08/24 10:35:11;;;;;;;2.50;2.30;;;;;;;27.21;46.01;98433.63;5034838;28;20111;-88
2022/08/24 10:41:31;;;;;;;2.90;2.63;;;;;;;27.48;44.46;98429.31;5072605;28;20037;-87
2022/08/24 10:44:32;;;;;;;3.28;3.00;;;;;;;27.41;45.11;98427.03;5057058;28;20037;-87
2022/08/24 10:47:11;;;;;;;2.60;2.40;;;;;;;27.64;44.93;98425.16;5035070;28;20471;-87
2022/08/24 10:50:29;;;;;;;2.67;2.47;;;;;;;27.68;44.04;98414.59;5033631;28;20063;-87
2022/08/24 10:53:22;;;;;;;2.42;2.22;;;;;;;28.00;44.70;98433.28;5036834;28;20049;-89
2022/08/24 10:56:07;;;;;;;2.88;2.53;;;;;;;28.14;43.82;98419.75;5032900;28;20136;-87
2022/08/24 10:59:09;;;;;;;3.25;2.80;;;;;;;28.07;42.67;98414.00;5050707;28;20046;-87
2022/08/24 11:01:38;;;;;;;2.58;2.30;;;;;;;28.38;43.38;98424.06;5037990;28;20072;-86
2022/08/24 11:04:10;;;;;;;2.70;2.20;;;;;;;28.31;42.21;98408.28;5051466;28;20045;-90
2022/08/24 11:07:08;;;;;;;2.88;2.30;;;;;;;28.48;41.69;98405.69;5049802;28;20464;-89
2022/08/24 11:09:52;;;;;;;2.25;2.03;;;;;;;28.87;41.83;98417.66;5037075;28;20050;-91
2022/08/24 11:12:37;;;;;;;2.90;2.70;;;;;;;28.74;41.00;98423.94;5028203;28;20044;-93
2022/08/24 11:15:25;;;;;;;2.50;2.30;;;;;;;28.71;41.51;98419.16;5073025;28;20487;-92
2022/08/24 11:18:01;;;;;;;2.38;2.10;;;;;;;28.92;42.20;98398.66;5063741;28;20119;-91
2022/08/24 11:20:35;;;;;;;2.50;2.30;;;;;;;29.01;40.83;98414.88;5042589;28;20045;-87
2022/08/24 11:23:19;;;;;;;2.10;2.00;;;;;;;28.91;41.89;98410.53;5051347;28;20065;-88
2022/08/24 11:26:17;;;;;;;2.88;2.10;;;;;;;29.07;41.78;98400.09;5050202;28;20051;-89
2022/08/24 11:28:51;;;;;;;2.45;2.17;;;;;;;29.25;41.40;98400.94;5054354;28;20053;-90
2022/08/24 11:31:41;;;;;;;2.80;2.60;;;;;;;29.16;39.96;98409.03;5058227;28;21010;-88
2022/08/24 11:34:16;;;;;;;;;;;;;;;29.19;41.47;98407.59;5050207;28;20083;-87
2022/08/24 11:36:43;;;;;;;2.35;2.15;;;;;;;29.51;41.63;98398.31;5052877;28;19921;-89
2022/08/24 11:39:20;;;;;;;2.22;2.03;;;;;;;29.66;40.78;98391.66;5060890;28;20041;-89
2022/08/24 11:41:50;;;;;;;2.55;2.10;;;;;;;29.67;40.64;98409.47;5063157;28;20107;-88
2022/08/24 11:44:38;;;;;;;2.50;2.30;;;;;;;29.49;39.46;98406.72;5049221;28;20507;-88
2022/08/24 11:47:26;;;;;;;3.83;2.85;;;;;;;29.40;40.76;98405.91;5032561;28;20042;-87
2022/08/24 11:50:23;;;;;;;3.13;2.72;;;;;;;29.27;39.71;98396.84;5032565;28;20081;-94
2022/08/24 11:53:13;;;;;;;3.38;3.08;;;;;;;29.00;40.00;98389.78;5057134;28;20127;-89
2022/08/24 11:56:14;;;;;;;2.67;2.28;;;;;;;28.93;41.04;98404.84;5050469;28;20061;-89
2022/08/24 11:59:23;;;;;;;2.53;2.33;;;;;;;28.32;41.05;98391.03;5057628;28;20565;-88
2022/08/24 12:01:58;;;;;;;2.60;2.40;;;;;;;28.09;42.04;98387.53;5034670;28;20469;-88
2022/08/24 12:05:01;;;;;;;2.40;2.20;;;;;;;28.34;40.94;98396.13;5074659;28;20075;-89
2022/08/24 12:07:34;;;;;;;2.83;2.50;;;;;;;28.60;41.15;98390.84;5052503;28;21206;-91
2022/08/24 12:10:03;;;;;;;2.50;2.30;;;;;;;28.73;38.77;98398.88;5046600;28;20037;-89
2022/08/24 12:13:14;;;;;;;2.60;2.40;;;;;;;29.19;41.21;98396.81;5049042;28;20064;-87
2022/08/24 12:16:14;;;;;;;2.83;2.55;;;;;;;29.39;37.60;98396.22;5015208;28;20052;-86
2022/08/24 12:18:56;;;;;;;;;;;;;;;29.63;37.91;98393.09;5033391;28;20107;-88
2022/08/24 12:21:31;;;;;;;1.90;1.80;;;;;;;29.81;38.49;98396.59;5034024;28;19921;-88
2022/08/24 12:24:03;;;;;;;2.58;2.38;;;;;;;29.78;37.10;98386.41;5068768;28;20067;-93
2022/08/24 12:26:44;;;;;;;2.50;2.30;;;;;;;29.89;37.27;98379.56;5074590;28;20048;-93